Time;durP1;ratioP1;P1;durP2;ratioP2;P2;SDS_P1;SDS_P2;PMS_P1;PMS_P2;Temp;Humidity;BMP_temperature;BMP_pressure;BME280_temperature;BME280_humidity;BME280_pressure;Samples;Min_cycle;Max_cycle;Signal;HPM_P1;HPM_P2
2021/07/02 00:02:10;;;;;;;;;8.00;8.00;;;;;23.28;49.08;98403.75;6261757;27;96787;-65
2021/07/02 00:05:26;;;;;;;;;7.00;6.60;;;;;23.25;48.71;98396.94;6337472;27;96203;-65
2021/07/02 00:08:42;;;;;;;;;8.25;7.25;;;;;23.14;48.78;98379.09;6260455;27;96993;-65
2021/07/02 00:11:58;;;;;;;;;8.20;8.20;;;;;23.40;48.55;98401.22;6261689;27;96729;-66
2021/07/02 00:15:14;;;;;;;;;8.00;7.20;;;;;23.43;48.89;98400.56;6261055;27;96168;-65
2021/07/02 00:18:28;;;;;;;;;8.50;8.00;;;;;23.37;48.79;98401.84;6261600;27;96766;-65
2021/07/02 00:21:44;;;;;;;;;7.00;7.00;;;;;23.38;48.87;98405.41;6286684;27;96117;-66
2021/07/02 00:25:00;;;;;;;;;8.25;7.25;;;;;23.33;49.37;98418.16;6255194;27;96806;-64
2021/07/02 00:28:16;;;;;;;;;8.00;8.00;;;;;23.35;49.06;98417.84;6260832;27;96269;-65
2021/07/02 00:31:31;;;;;;;;;8.75;7.50;;;;;23.39;49.28;98418.03;6233415;28;96197;-65
2021/07/02 00:34:46;;;;;;;;;9.00;9.00;;;;;23.39;49.18;98412.53;6316002;27;96716;-65
2021/07/02 00:38:01;;;;;;;;;7.60;7.00;;;;;23.40;49.42;98411.41;6286715;27;96084;-64
2021/07/02 00:41:16;;;;;;;;;9.00;8.00;;;;;23.37;49.38;98415.59;6260958;27;96655;-65
2021/07/02 00:44:43;;;;;;;;;11.00;9.00;;;;;23.43;49.16;98419.84;6261826;27;96537;-64
2021/07/02 00:47:59;;;;;;;;;9.00;9.00;;;;;23.42;49.38;98414.63;6261579;27;96489;-64
2021/07/02 00:51:14;;;;;;;;;9.50;9.00;;;;;23.53;49.54;98402.25;6261009;27;96258;-67
2021/07/02 00:54:29;;;;;;;;;9.25;9.00;;;;;23.63;48.93;98394.53;6261420;27;96613;-65
2021/07/02 00:57:45;;;;;;;;;9.20;8.20;;;;;23.69;48.86;98398.78;6261595;27;96177;-65
2021/07/02 01:01:01;;;;;;;;;10.60;10.60;;;;;23.73;48.83;98396.19;6260781;27;96409;-65
2021/07/02 01:04:16;;;;;;;;;9.60;9.00;;;;;23.68;48.89;98391.63;6260020;27;96433;-68
2021/07/02 01:07:31;;;;;;;;;10.20;9.00;;;;;23.73;49.22;98399.75;6280117;27;96641;-64
2021/07/02 01:10:47;;;;;;;;;11.00;10.00;;;;;23.72;49.27;98408.31;6248020;27;96344;-67
2021/07/02 01:14:02;;;;;;;;;11.00;10.00;;;;;23.70;49.27;98396.84;6248738;27;96970;-67
2021/07/02 01:17:17;;;;;;;;;9.00;9.00;;;;;23.62;49.76;98395.66;6242953;27;96256;-65
2021/07/02 01:20:32;;;;;;;;;10.25;9.25;;;;;23.65;49.61;98394.22;6248117;27;96741;-65
2021/07/02 01:23:49;;;;;;;;;9.00;9.00;;;;;23.71;49.27;98398.44;6253606;27;96584;-65
2021/07/02 01:27:04;;;;;;;;;10.00;9.60;;;;;23.51;49.50;98375.06;6246493;27;96829;-66
2021/07/02 01:30:19;;;;;;;;;9.00;9.00;;;;;23.70;49.42;98394.09;6329569;27;96373;-65
2021/07/02 01:33:34;;;;;;;;;10.20;10.20;;;;;23.70;49.69;98391.31;6253753;27;96910;-66
2021/07/02 01:36:50;;;;;;;;;11.00;9.00;;;;;23.63;49.92;98389.03;6236138;27;96451;-64
2021/07/02 01:40:10;;;;;;;;;11.00;10.00;;;;;23.58;49.91;98383.66;6260386;27;96198;-67
2021/07/02 01:43:26;;;;;;;;;10.20;10.00;;;;;23.57;49.94;98384.78;6338160;27;96865;-67
2021/07/02 01:46:42;;;;;;;;;11.20;9.60;;;;;23.57;49.92;98381.22;6260560;27;96257;-67
2021/07/02 01:49:59;;;;;;;;;10.00;9.20;;;;;23.44;50.09;98371.13;6261581;27;96787;-65
2021/07/02 01:53:15;;;;;;;;;8.40;8.00;;;;;23.59;49.88;98392.75;6262074;27;96107;-65
2021/07/02 01:56:30;;;;;;;;;9.40;9.40;;;;;23.57;49.64;98394.97;6253581;27;96734;-65
2021/07/02 01:59:45;;;;;;;;;8.00;8.00;;;;;23.49;50.15;98395.78;6261452;27;96406;-64
2021/07/02 02:03:02;;;;;;;;;10.00;9.00;;;;;23.57;49.64;98403.25;6261272;27;96183;-64
2021/07/02 02:06:17;;;;;;;;;10.00;9.40;;;;;23.59;49.64;98395.50;6337316;27;96797;-66
2021/07/02 02:09:33;;;;;;;;;10.40;10.40;;;;;23.64;49.54;98403.59;6286747;27;96478;-64
2021/07/02 02:12:48;;;;;;;;;11.00;10.60;;;;;23.51;49.79;98399.81;6260665;27;96780;-64
2021/07/02 02:16:04;;;;;;;;;10.00;9.60;;;;;23.52;49.58;98393.19;6258871;27;96387;-65
2021/07/02 02:19:18;;;;;;;;;10.00;9.00;;;;;23.58;49.67;98394.69;6286268;27;96570;-67
2021/07/02 02:22:33;;;;;;;;;10.00;9.40;;;;;23.66;49.34;98393.88;6261356;27;96207;-64
2021/07/02 02:25:50;;;;;;;;;11.00;10.00;;;;;23.64;49.23;98404.41;6260874;27;96780;-65
2021/07/02 02:29:05;;;;;;;;;10.00;10.00;;;;;23.60;49.49;98397.13;6337790;27;96166;-66
2021/07/02 02:32:20;;;;;;;;;11.00;10.50;;;;;23.63;49.41;98394.53;6261074;27;96667;-65
2021/07/02 02:35:35;;;;;;;;;9.00;9.00;;;;;23.64;49.53;98387.09;6260510;27;96333;-66
2021/07/02 02:38:50;;;;;;;;;10.20;8.80;;;;;23.58;49.77;98383.66;6260476;27;96855;-65
2021/07/02 02:42:06;;;;;;;;;9.00;9.00;;;;;23.64;49.65;98387.09;6357441;27;96042;-67
2021/07/02 02:45:21;;;;;;;;;10.00;9.00;;;;;23.64;49.46;98392.59;6287189;27;96861;-66
2021/07/02 02:48:37;;;;;;;;;10.40;9.40;;;;;23.54;49.66;98395.63;6261682;27;96508;-65
2021/07/02 02:51:53;;;;;;;;;8.60;8.00;;;;;23.54;49.60;98396.44;6261993;27;96807;-64
2021/07/02 02:55:10;;;;;;;;;7.25;7.00;;;;;23.53;49.64;98402.25;6260881;27;96416;-66
2021/07/02 02:58:26;;;;;;;;;8.60;8.00;;;;;23.44;49.92;98402.19;6260920;27;96178;-66
2021/07/02 03:01:41;;;;;;;;;10.00;8.00;;;;;23.37;50.41;98395.50;6260822;27;96403;-64
2021/07/02 03:04:56;;;;;;;;;7.00;7.00;;;;;23.46;50.11;98415.66;6261024;27;96170;-66
2021/07/02 03:08:15;;;;;;;;;8.00;7.40;;;;;23.51;49.97;98412.75;6286156;27;96719;-65
2021/07/02 03:11:37;;;;;;;;;8.40;8.00;;;;;23.59;49.92;98417.50;6252656;27;96790;-64
2021/07/02 03:14:54;;;;;;;;;7.50;7.00;;;;;23.57;49.90;98417.81;6338004;27;96378;-65
2021/07/02 03:18:09;;;;;;;;;9.00;9.00;;;;;23.60;50.07;98430.94;6286407;27;96239;-66
2021/07/02 03:21:24;;;;;;;;;8.00;8.00;;;;;23.58;49.79;98426.88;6286087;27;96806;-66
2021/07/02 03:24:41;;;;;;;;;10.00;9.00;;;;;23.56;49.95;98437.38;6260634;27;96425;-65
2021/07/02 03:27:57;;;;;;;;;9.00;9.00;;;;;23.63;49.93;98433.06;6246782;27;97022;-66
2021/07/02 03:31:15;;;;;;;;;9.00;8.50;;;;;23.65;49.77;98444.53;6253496;27;96452;-65
2021/07/02 03:34:32;;;;;;;;;8.20;7.20;;;;;23.63;49.73;98435.00;6260053;27;96351;-66
2021/07/02 03:37:47;;;;;;;;;8.50;8.00;;;;;23.62;49.81;98438.88;6261262;27;96606;-67
2021/07/02 03:41:04;;;;;;;;;7.00;7.00;;;;;23.68;50.06;98448.63;6283261;27;96268;-64
2021/07/02 03:44:20;;;;;;;;;10.00;8.00;;;;;23.82;49.59;98438.31;6246575;27;96741;-65
2021/07/02 03:47:37;;;;;;;;;7.60;6.60;;;;;23.90;49.69;98445.78;6229650;28;96489;-65
2021/07/02 03:50:54;;;;;;;;;9.00;8.00;;;;;24.01;49.25;98449.84;6261041;27;96773;-67
2021/07/02 03:54:08;;;;;;;;;10.00;9.00;;;;;24.07;49.24;98450.53;6261046;27;96297;-65
2021/07/02 03:57:23;;;;;;;;;11.00;10.00;;;;;24.12;48.92;98445.69;6261516;27;96643;-65
2021/07/02 04:00:38;;;;;;;;;10.00;10.00;;;;;24.14;48.97;98448.91;6257737;27;96576;-65
2021/07/02 04:03:53;;;;;;;;;9.80;9.00;;;;;24.17;48.67;98444.75;6286115;27;96731;-65
2021/07/02 04:07:10;;;;;;;;;9.00;9.00;;;;;24.08;48.87;98441.94;6260665;27;96477;-66
2021/07/02 04:10:25;;;;;;;;;10.00;9.00;;;;;24.16;48.71;98443.09;6260515;27;96442;-64
2021/07/02 04:13:40;;;;;;;;;11.00;10.40;;;;;24.13;48.93;98441.00;6261083;27;96159;-68
2021/07/02 04:16:56;;;;;;;;;10.00;9.00;;;;;24.14;48.82;98435.13;6236459;27;96524;-65
2021/07/02 04:20:13;;;;;;;;;11.00;10.00;;;;;24.12;49.33;98436.59;6312360;27;96699;-66
2021/07/02 04:23:28;;;;;;;;;9.00;8.75;;;;;24.16;48.79;98432.91;6260325;27;97292;-65
2021/07/02 04:26:44;;;;;;;;;11.00;11.00;;;;;24.21;49.11;98436.66;6260643;27;96949;-65
2021/07/02 04:30:01;;;;;;;;;10.40;10.00;;;;;24.10;49.05;98434.16;6337721;27;96339;-65
2021/07/02 04:33:16;;;;;;;;;12.00;10.00;;;;;24.09;48.92;98440.00;6271507;27;96854;-65
2021/07/02 04:36:31;;;;;;;;;9.75;8.75;;;;;24.17;48.98;98437.28;6337563;27;96456;-64
2021/07/02 04:39:46;;;;;;;;;9.00;9.00;;;;;24.19;48.85;98425.16;6261209;27;96335;-66
2021/07/02 04:43:01;;;;;;;;;9.00;9.00;;;;;24.29;48.99;98433.91;6322515;27;96161;-65
2021/07/02 04:46:17;;;;;;;;;9.50;9.00;;;;;24.30;48.56;98441.03;6273038;27;97022;-65
2021/07/02 04:49:32;;;;;;;;;11.00;10.50;;;;;24.30;48.66;98443.78;6281788;27;96168;-64
2021/07/02 04:52:46;;;;;;;;;10.60;10.60;;;;;24.37;48.72;98457.09;6257420;27;96804;-66
2021/07/02 04:56:01;;;;;;;;;11.00;10.00;;;;;24.35;48.79;98451.91;6235830;27;96430;-64
2021/07/02 04:59:18;;;;;;;;;11.80;10.20;;;;;24.43;48.19;98447.56;6251631;27;96867;-65
2021/07/02 05:02:33;;;;;;;;;11.50;10.50;;;;;24.48;48.55;98461.97;6256097;27;96107;-67
2021/07/02 05:05:48;;;;;;;;;11.33;11.00;;;;;24.49;47.88;98466.34;6251716;27;96628;-65
2021/07/02 05:09:04;;;;;;;;;13.75;12.00;;;;;24.46;48.08;98474.44;6254370;27;96488;-64
2021/07/02 05:12:20;;;;;;;;;11.00;11.00;;;;;24.43;48.30;98470.41;6251261;27;96392;-68
2021/07/02 05:15:35;;;;;;;;;11.00;10.00;;;;;24.47;48.37;98474.13;6257969;27;96941;-64
2021/07/02 05:18:50;;;;;;;;;10.00;9.60;;;;;24.42;48.42;98468.78;6253265;27;96162;-64
2021/07/02 05:22:05;;;;;;;;;12.00;11.00;;;;;24.31;48.36;98472.97;6254041;27;96749;-65
2021/07/02 05:25:20;;;;;;;;;14.40;12.00;;;;;24.30;48.56;98481.53;6259183;27;96216;-64
2021/07/02 05:28:35;;;;;;;;;10.00;10.00;;;;;24.27;48.61;98484.94;6259047;27;96324;-67
2021/07/02 05:31:51;;;;;;;;;12.60;12.00;;;;;24.28;48.74;98486.56;6259708;27;97103;-66
2021/07/02 05:35:08;;;;;;;;;11.50;11.00;;;;;24.30;48.54;98489.81;6260087;27;96457;-65
2021/07/02 05:38:23;;;;;;;;;10.00;9.00;;;;;24.33;48.44;98494.69;6251273;27;97170;-67
2021/07/02 05:41:38;;;;;;;;;10.00;9.80;;;;;24.40;48.47;98489.50;6335551;27;96453;-65
2021/07/02 05:44:53;;;;;;;;;11.00;11.00;;;;;24.42;48.45;98495.53;6259683;27;96810;-64
2021/07/02 05:48:08;;;;;;;;;13.60;13.60;;;;;24.46;48.95;98490.97;6284207;27;96191;-65
2021/07/02 05:51:23;;;;;;;;;11.00;10.33;;;;;24.41;49.42;98489.19;6257628;27;96696;-65
2021/07/02 05:54:38;;;;;;;;;12.40;12.40;;;;;24.35;49.77;98495.97;6307404;27;1358120;-64
2021/07/02 05:57:53;;;;;;;;;12.00;12.00;;;;;24.35;50.01;98495.97;6259880;27;96494;-65
2021/07/02 06:01:08;;;;;;;;;10.00;9.00;;;;;24.30;50.18;98495.31;6256704;27;96648;-64
2021/07/02 06:04:23;;;;;;;;;13.00;11.20;;;;;24.13;50.27;98493.31;6256375;27;96240;-64
2021/07/02 06:07:46;;;;;;;;;13.00;12.00;;;;;24.15;50.29;98499.31;6281503;27;96602;-64
2021/07/02 06:11:01;;;;;;;;;11.75;11.00;;;;;24.04;50.92;98504.28;6256386;27;96589;-64
2021/07/02 06:14:16;;;;;;;;;11.60;11.00;;;;;23.85;51.51;98511.97;6255500;27;96338;-66
2021/07/02 06:17:31;;;;;;;;;12.40;12.00;;;;;23.76;52.01;98513.88;6248082;27;96334;-66
2021/07/02 06:20:51;;;;;;;;;12.00;10.40;;;;;23.66;52.38;98506.72;6337123;27;96906;-64
2021/07/02 06:24:06;;;;;;;;;13.40;11.60;;;;;23.65;53.15;98515.31;6256678;27;96461;-67
2021/07/02 06:27:21;;;;;;;;;16.20;15.00;;;;;23.60;53.31;98512.69;6255190;27;97044;-66
2021/07/02 06:30:36;;;;;;;;;18.20;15.00;;;;;23.58;53.19;98520.44;6241267;27;96454;-65
2021/07/02 06:33:50;;;;;;;;;17.00;16.00;;;;;23.52;53.37;98517.00;6233478;27;96573;-66
2021/07/02 06:37:06;;;;;;;;;17.40;16.00;;;;;23.52;53.36;98518.94;6271622;27;96423;-65
2021/07/02 06:40:21;;;;;;;;;15.00;14.50;;;;;23.37;53.95;98520.13;6284643;27;96388;-67
2021/07/02 06:43:36;;;;;;;;;13.40;13.00;;;;;23.45;53.70;98524.91;6336337;27;97060;-66
2021/07/02 06:46:51;;;;;;;;;15.40;13.40;;;;;23.49;53.41;98522.34;6246068;27;96449;-64
2021/07/02 06:50:08;;;;;;;;;15.40;14.60;;;;;23.41;53.61;98520.31;6388012;27;96372;-65
2021/07/02 06:53:22;;;;;;;;;15.00;14.00;;;;;23.42;53.37;98516.41;6249405;27;96304;-66
2021/07/02 06:56:37;;;;;;;;;16.40;15.00;;;;;23.48;53.60;98521.53;6223236;27;96704;-65
2021/07/02 06:59:54;;;;;;;;;12.40;12.00;;;;;23.54;53.13;98525.78;6314391;27;96658;-64
2021/07/02 07:03:09;;;;;;;;;15.00;14.00;;;;;23.56;53.00;98523.50;6263497;27;96338;-65
2021/07/02 07:06:24;;;;;;;;;14.00;13.00;;;;;23.57;53.21;98524.31;6278128;27;96983;-64
2021/07/02 07:09:39;;;;;;;;;14.20;13.00;;;;;23.72;52.42;98518.41;6265671;27;96337;-64
2021/07/02 07:12:54;;;;;;;;;14.00;13.00;;;;;23.74;52.18;98516.97;6242551;27;96760;-64
2021/07/02 07:16:09;;;;;;;;;17.00;15.00;;;;;23.77;52.41;98506.44;6361876;27;96143;-65
2021/07/02 07:19:26;;;;;;;;;13.50;12.50;;;;;23.93;52.21;98513.97;6269785;27;96360;-66
2021/07/02 07:22:40;;;;;;;;;15.00;14.00;;;;;23.98;51.71;98511.09;6269399;27;96338;-67
2021/07/02 07:25:57;;;;;;;;;16.00;13.40;;;;;24.15;51.28;98505.63;6250021;27;97222;-65
2021/07/02 07:29:12;;;;;;;;;13.80;12.00;;;;;24.19;50.66;98507.78;6284722;27;96338;-64
2021/07/02 07:32:27;;;;;;;;;13.00;13.00;;;;;24.30;50.11;98509.91;6233800;27;96284;-66
2021/07/02 07:35:44;;;;;;;;;16.00;14.00;;;;;24.35;50.27;98511.69;6236701;27;96544;-64
2021/07/02 07:38:59;;;;;;;;;14.00;13.40;;;;;24.38;49.95;98505.56;6319607;27;96434;-64
2021/07/02 07:42:14;;;;;;;;;14.00;13.00;;;;;24.44;49.61;98515.28;6295361;27;96811;-66
2021/07/02 07:45:29;;;;;;;;;12.00;11.00;;;;;24.43;49.38;98508.97;6255868;27;96244;-67
2021/07/02 07:48:44;;;;;;;;;15.00;14.67;;;;;24.55;49.36;98508.34;6247414;27;96643;-65
2021/07/02 07:52:01;;;;;;;;;15.00;13.00;;;;;24.63;49.54;98507.53;6323489;27;96204;-64
2021/07/02 07:55:15;;;;;;;;;14.00;12.40;;;;;24.67;49.50;98511.28;6309049;27;96183;-66
2021/07/02 07:58:30;;;;;;;;;13.00;12.00;;;;;24.82;48.96;98516.31;6246248;27;96974;-66
2021/07/02 08:01:45;;;;;;;;;11.20;10.20;;;;;25.03;48.71;98511.78;6327198;27;96205;-65
2021/07/02 08:05:00;;;;;;;;;10.00;9.00;;;;;25.23;48.00;98517.78;6267760;27;96274;-65
2021/07/02 08:08:16;;;;;;;;;12.40;12.00;;;;;25.37;47.66;98523.91;6259136;27;97327;-65
2021/07/02 08:11:32;;;;;;;;;11.00;11.00;;;;;25.56;46.77;98526.38;6249728;27;97308;-65
2021/07/02 08:14:47;;;;;;;;;11.80;11.00;;;;;25.75;45.77;98515.75;6246550;27;96350;-65
2021/07/02 08:18:02;;;;;;;;;9.00;8.40;;;;;25.87;45.62;98521.38;6245815;27;96110;-65
2021/07/02 08:21:17;;;;;;;;;7.80;7.00;;;;;26.32;44.02;98524.47;6249867;27;97452;-66
2021/07/02 08:24:32;;;;;;;;;9.00;8.00;;;;;26.52;43.14;98526.47;6255217;27;96768;-65
2021/07/02 08:31:24;;;;;;;;;11.00;9.00;;;;;27.13;42.62;98521.31;6246083;27;96296;-64
2021/07/02 08:34:39;;;;;;;;;10.50;9.50;;;;;27.26;41.88;98519.41;6253590;27;96884;-64
2021/07/02 08:37:54;;;;;;;;;8.00;8.00;;;;;27.53;41.12;98525.19;6260308;27;96428;-65
2021/07/02 08:41:12;;;;;;;;;11.00;10.00;;;;;27.68;41.08;98520.94;6260454;27;96144;-66
2021/07/02 08:44:27;;;;;;;;;9.00;9.00;;;;;27.92;41.10;98520.19;6311433;27;96291;-65
2021/07/02 08:47:42;;;;;;;;;10.00;10.00;;;;;28.07;40.90;98516.72;6246200;27;96361;-66
2021/07/02 08:50:56;;;;;;;;;10.75;10.00;;;;;28.16;40.35;98522.19;6326183;27;1357883;-64
2021/07/02 08:54:14;;;;;;;;;10.40;10.00;;;;;28.14;40.78;98522.56;6256280;27;96683;-65
2021/07/02 08:57:30;;;;;;;;;9.40;9.00;;;;;28.20;39.82;98523.91;6281647;27;96417;-65
2021/07/02 09:00:46;;;;;;;;;10.20;8.80;;;;;28.27;39.88;98521.41;6244339;27;96158;-64
2021/07/02 09:04:15;;;;;;;;;10.75;9.75;;;;;28.34;40.16;98524.41;6258243;27;96112;-67
2021/07/02 09:07:30;;;;;;;;;10.00;10.00;;;;;28.35;40.08;98514.09;6253631;27;96137;-66
2021/07/02 09:10:46;;;;;;;;;9.00;9.00;;;;;28.30;39.65;98522.66;6333249;27;96860;-66
2021/07/02 09:14:03;;;;;;;;;9.00;8.80;;;;;28.29;40.24;98529.38;6281250;27;96408;-65
2021/07/02 09:17:18;;;;;;;;;10.60;9.60;;;;;28.19;39.87;98519.56;6282987;27;97246;-64
2021/07/02 09:20:36;;;;;;;;;9.40;9.40;;;;;28.27;39.93;98510.31;6334950;27;96798;-65
2021/07/02 09:23:51;;;;;;;;;9.00;9.00;;;;;28.22;40.39;98507.75;6258674;27;96541;-66
2021/07/02 09:27:25;;;;;;;;;12.00;11.00;;;;;28.12;39.73;98508.22;6258401;27;96199;-66
2021/07/02 09:30:30;;;;;;;;;8.00;8.00;;;;;28.09;40.39;98503.34;6245576;27;97997;-66
2021/07/02 09:33:45;;;;;;;;;9.60;9.00;;;;;28.02;39.70;98503.91;6235664;27;96276;-67
2021/07/02 09:37:19;;;;;;;;;10.50;10.50;;;;;28.05;40.38;98499.66;6332741;27;96614;-67
2021/07/02 09:40:35;;;;;;;;;10.20;10.00;;;;;28.18;40.28;98506.84;6232462;27;96902;-64
2021/07/02 09:43:56;;;;;;;;;9.00;8.00;;;;;28.30;39.31;98509.59;6337825;27;96436;-65
2021/07/02 09:47:30;;;;;;;;;11.00;11.00;;;;;28.55;38.58;98501.25;6283066;27;96177;-66
2021/07/02 09:50:33;;;;;;;;;8.80;8.80;;;;;28.47;39.27;98497.47;6256380;27;97937;-66
2021/07/02 09:53:38;;;;;;;;;10.00;9.00;;;;;28.68;38.43;98506.47;6257632;27;98020;-66
2021/07/02 09:56:41;;;;;;;;;9.00;8.75;;;;;28.89;38.42;98505.47;6273867;27;97633;-65
2021/07/02 10:00:04;;;;;;;;;11.00;10.00;;;;;29.02;38.38;98507.91;6257409;27;96609;-65
2021/07/02 10:03:23;;;;;;;;;11.60;11.00;;;;;29.14;38.28;98490.38;6257479;27;97157;-65
2021/07/02 10:06:27;;;;;;;;;12.00;10.00;;;;;29.37;38.56;98499.78;6253205;27;96617;-67
2021/07/02 10:09:30;;;;;;;;;10.40;10.40;;;;;29.59;36.93;98509.50;6282299;27;97543;-67
2021/07/02 10:12:34;;;;;;;;;10.00;10.00;;;;;29.86;37.20;98507.84;6265757;27;97382;-65
2021/07/02 10:15:37;;;;;;;;;11.00;9.00;;;;;29.98;36.87;98510.56;6256555;27;96978;-67
2021/07/02 10:18:47;;;;;;;;;9.40;9.40;;;;;30.25;36.63;98509.63;6254125;27;98061;-65
2021/07/02 10:21:51;;;;;;;;;10.00;9.00;;;;;30.37;35.57;98511.50;6254068;27;99552;-66
2021/07/02 10:24:56;;;;;;;;;11.00;10.00;;;;;30.38;35.23;98491.69;6253423;27;98009;-65
2021/07/02 10:28:00;;;;;;;;;12.40;11.60;;;;;30.36;35.81;98515.44;6255390;27;96695;-65
2021/07/02 10:31:07;;;;;;;;;10.20;10.20;;;;;30.23;36.17;98513.94;6255221;27;96989;-67
2021/07/02 10:34:12;;;;;;;;;11.00;10.50;;;;;30.00;35.48;98484.03;6255185;27;96993;-67
2021/07/02 10:37:16;;;;;;;;;12.00;11.00;;;;;30.04;36.24;98501.59;6243466;27;97414;-66
2021/07/02 10:40:46;;;;;;;;;10.60;10.00;;;;;30.04;36.87;98503.56;6253757;27;97353;-64
2021/07/02 10:44:04;;;;;;;;;10.25;9.00;;;;;29.66;37.43;98504.94;6249574;27;96681;-67
2021/07/02 10:47:07;;;;;;;;;11.80;11.80;;;;;29.26;38.06;98509.75;6237663;27;97789;-67
2021/07/02 10:50:35;;;;;;;;;12.00;10.00;;;;;29.15;37.92;98508.66;6254736;27;97551;-65
2021/07/02 10:53:38;;;;;;;;;13.00;11.50;;;;;29.07;37.91;98507.66;6252480;27;97409;-66
2021/07/02 10:56:44;;;;;;;;;13.00;11.40;;;;;28.86;38.35;98507.00;6240955;27;98065;-68
2021/07/02 11:00:08;;;;;;;;;12.60;12.00;;;;;28.63;38.73;98503.09;6228589;27;96886;-67
2021/07/02 11:03:20;;;;;;;;;11.00;11.00;;;;;28.44;39.27;98515.59;6206970;28;97904;-65
2021/07/02 11:06:39;;;;;;;;;11.75;11.00;;;;;28.31;39.99;98514.00;6232819;28;97825;-66
2021/07/02 11:09:56;;;;;;;;;11.50;11.50;;;;;28.19;40.02;98514.00;6226838;28;96859;-66
2021/07/02 11:13:04;;;;;;;;;10.20;9.20;;;;;28.17;40.05;98505.22;6229401;28;96796;-66
2021/07/02 11:16:09;;;;;;;;;11.00;10.40;;;;;28.22;40.20;98501.41;6239203;28;97463;-66
2021/07/02 11:19:26;;;;;;;;;10.20;10.20;;;;;28.22;40.48;98507.75;6238806;28;96871;-65
2021/07/02 11:22:32;;;;;;;;;13.00;11.50;;;;;28.16;40.60;98508.31;6239262;28;96615;-64
2021/07/02 11:25:43;;;;;;;;;12.40;12.00;;;;;28.11;40.34;98511.31;6237717;28;97295;-65
2021/07/02 11:28:56;;;;;;;;;13.00;12.00;;;;;28.01;40.47;98507.84;6238872;27;97467;-65
2021/07/02 11:31:59;;;;;;;;;12.75;12.75;;;;;27.88;40.51;98486.00;6235695;27;96728;-65
2021/07/02 11:35:19;;;;;;;;;11.00;10.00;;;;;27.96;40.99;98490.63;6236445;28;97236;-65
2021/07/02 11:38:25;;;;;;;;;10.40;10.40;;;;;27.98;40.80;98480.00;6238911;27;97254;-66
2021/07/02 11:41:32;;;;;;;;;11.00;11.00;;;;;28.05;40.41;98485.00;6220307;28;96814;-67
2021/07/02 11:44:36;;;;;;;;;11.00;10.00;;;;;28.32;40.23;98487.09;6237143;28;96653;-67
2021/07/02 11:47:39;;;;;;;;;11.00;10.50;;;;;28.56;39.89;98480.69;6239252;28;96658;-67
2021/07/02 11:50:45;;;;;;;;;10.00;9.60;;;;;28.64;39.39;98485.28;6219760;28;97676;-67
2021/07/02 11:53:51;;;;;;;;;7.20;7.20;;;;;28.68;38.48;98480.69;6237440;28;96749;-66
2021/07/02 11:56:54;;;;;;;;;9.00;9.00;;;;;28.70;37.94;98476.38;6227920;28;97181;-65
2021/07/02 12:00:00;;;;;;;;;9.60;8.00;;;;;28.85;37.54;98464.56;6234854;28;96533;-65
2021/07/02 12:03:03;;;;;;;;;9.00;9.00;;;;;29.04;37.55;98466.69;6239160;27;97359;-67
2021/07/02 12:06:08;;;;;;;;;10.80;10.00;;;;;29.13;37.42;98461.00;6227061;28;96450;-66
2021/07/02 12:09:15;;;;;;;;;10.80;10.00;;;;;29.23;37.64;98450.19;6211982;28;98723;-68
2021/07/02 12:12:20;;;;;;;;;11.00;10.00;;;;;29.19;37.57;98446.50;6237496;28;96618;-67
2021/07/02 12:15:27;;;;;;;;;12.00;11.50;;;;;29.40;37.72;98462.97;6229067;28;97394;-65
2021/07/02 12:18:31;;;;;;;;;11.00;10.00;;;;;29.33;37.18;98464.75;6228809;27;97978;-67
2021/07/02 12:21:36;;;;;;;;;12.00;11.00;;;;;29.27;37.75;98456.63;6219184;28;96574;-66
2021/07/02 12:24:42;;;;;;;;;12.40;12.00;;;;;29.28;37.85;98444.38;6235862;28;97279;-66
2021/07/02 12:27:58;;;;;;;;;10.00;10.00;;;;;29.36;37.57;98448.19;6237021;28;97412;-67
2021/07/02 12:31:01;;;;;;;;;10.00;9.00;;;;;29.55;36.57;98442.75;6219082;28;96735;-65
2021/07/02 12:34:07;;;;;;;;;11.00;10.40;;;;;29.62;37.12;98437.34;6230912;28;97623;-64
2021/07/02 12:37:12;;;;;;;;;11.00;11.00;;;;;29.67;37.16;98439.88;6212805;28;98783;-66
2021/07/02 12:40:16;;;;;;;;;13.40;12.00;;;;;29.48;37.28;98438.97;6236557;28;97499;-65
2021/07/02 12:43:20;;;;;;;;;12.00;11.00;;;;;29.49;37.40;98435.84;6236730;27;96844;-67
2021/07/02 12:46:23;;;;;;;;;12.50;12.00;;;;;29.50;37.14;98436.66;6222315;28;96589;-67
2021/07/02 12:49:33;;;;;;;;;13.00;12.00;;;;;29.49;36.12;98441.41;6234997;28;96636;-66
2021/07/02 12:56:02;;;;;;;;;12.80;10.80;;;;;29.48;36.34;98438.97;6236875;28;96826;-65
2021/07/02 12:59:13;;;;;;;;;10.00;10.00;;;;;29.60;36.67;98442.50;6235663;28;97610;-67
2021/07/02 13:02:30;;;;;;;;;11.00;10.00;;;;;29.62;36.60;98437.34;6234977;28;97701;-66
2021/07/02 13:05:36;;;;;;;;;9.00;8.00;;;;;29.49;35.51;98437.81;6211408;28;98608;-66
2021/07/02 13:08:40;;;;;;;;;9.00;9.00;;;;;29.38;36.02;98440.28;6236116;28;96777;-64
2021/07/02 13:11:45;;;;;;;;;10.60;9.40;;;;;29.39;35.58;98441.09;6235234;27;96974;-65
2021/07/02 13:15:04;;;;;;;;;11.00;9.00;;;;;29.47;36.64;98438.16;6212204;28;97888;-66
2021/07/02 13:18:18;;;;;;;;;9.25;9.00;;;;;29.48;36.06;98427.84;6234909;28;97440;-65
2021/07/02 13:21:29;;;;;;;;;8.60;8.60;;;;;29.46;36.51;98428.22;6234332;27;97237;-67
2021/07/02 13:24:32;;;;;;;;;10.60;9.00;;;;;29.74;35.95;98430.09;6229306;28;97359;-64
2021/07/02 13:27:39;;;;;;;;;9.40;8.00;;;;;29.90;36.13;98425.41;6235857;28;96610;-65
2021/07/02 13:30:43;;;;;;;;;10.20;10.00;;;;;29.99;36.49;98429.59;6221901;28;96770;-66
2021/07/02 13:34:02;;;;;;;;;10.75;10.00;;;;;30.00;36.59;98428.44;6230296;28;96807;-68
2021/07/02 13:37:05;;;;;;;;;11.00;10.00;;;;;29.84;36.55;98433.16;6236167;27;97406;-68
2021/07/02 13:40:09;;;;;;;;;10.00;10.00;;;;;29.61;36.56;98432.19;6235265;28;96702;-68
2021/07/02 13:43:16;;;;;;;;;12.00;11.00;;;;;29.48;36.77;98431.44;6235353;28;97504;-67
2021/07/02 13:46:28;;;;;;;;;8.00;7.20;;;;;29.44;36.24;98424.19;6235363;28;96482;-66
2021/07/02 13:49:31;;;;;;;;;8.00;8.00;;;;;29.30;35.83;98427.38;6234596;27;98494;-66
2021/07/02 13:52:35;;;;;;;;;9.00;7.00;;;;;29.15;36.31;98417.03;6224776;27;97874;-68
2021/07/02 13:55:39;;;;;;;;;9.00;9.00;;;;;29.06;36.56;98425.53;6218488;28;97517;-67
2021/07/02 13:58:43;;;;;;;;;9.00;7.60;;;;;29.08;36.77;98423.19;6235715;28;97456;-68
2021/07/02 14:01:47;;;;;;;;;8.00;8.00;;;;;29.05;37.44;98420.31;6236953;28;96567;-67
2021/07/02 14:04:50;;;;;;;;;9.00;8.40;;;;;28.88;37.38;98393.72;6235079;28;97465;-64
2021/07/02 14:07:54;;;;;;;;;9.00;8.75;;;;;29.07;38.14;98424.38;6223253;28;97612;-67
2021/07/02 14:10:57;;;;;;;;;10.40;9.00;;;;;29.00;37.90;98424.16;6233274;28;98506;-65
2021/07/02 14:14:03;;;;;;;;;9.50;9.50;;;;;29.07;38.23;98429.13;6236162;27;97604;-66
2021/07/02 14:17:06;;;;;;;;;12.00;11.00;;;;;28.97;38.21;98421.28;6223068;28;97854;-65
2021/07/02 14:20:10;;;;;;;;;8.80;8.80;;;;;29.07;37.95;98416.03;6249725;27;96554;-67
2021/07/02 14:23:13;;;;;;;;;10.00;10.00;;;;;29.04;38.79;98421.47;6236020;27;97456;-67
2021/07/02 14:26:16;;;;;;;;;10.00;10.00;;;;;28.98;36.96;98420.16;6235760;27;97503;-65
2021/07/02 14:29:21;;;;;;;;;8.00;8.00;;;;;28.87;36.79;98427.34;6224792;28;99618;-66
2021/07/02 14:32:24;;;;;;;;;8.00;8.00;;;;;28.81;36.67;98422.06;6211166;28;96620;-65
2021/07/02 14:35:27;;;;;;;;;8.00;8.00;;;;;28.87;36.12;98425.38;6239206;28;97690;-67
2021/07/02 14:38:30;;;;;;;;;7.00;6.00;;;;;28.94;36.31;98428.34;6240781;28;97179;-66
2021/07/02 14:41:34;;;;;;;;;8.00;7.33;;;;;29.06;35.82;98428.31;6240662;28;96713;-66
2021/07/02 14:44:38;;;;;;;;;8.40;8.40;;;;;29.09;36.55;98429.56;6238220;28;97770;-65
2021/07/02 14:47:42;;;;;;;;;8.25;8.25;;;;;29.10;36.17;98434.75;6235564;28;96684;-66
2021/07/02 14:50:45;;;;;;;;;8.00;7.00;;;;;29.13;35.53;98425.72;6240392;27;96654;-67
2021/07/02 14:53:50;;;;;;;;;8.00;7.00;;;;;29.20;35.60;98430.66;6239865;28;96722;-66
2021/07/02 14:56:53;;;;;;;;;6.00;5.00;;;;;29.24;35.19;98424.03;6222144;28;97938;-65
2021/07/02 14:59:58;;;;;;;;;7.33;7.00;;;;;29.24;35.49;98428.78;6230605;28;97046;-66
2021/07/02 15:03:02;;;;;;;;;8.00;7.00;;;;;29.24;35.45;98423.22;6232937;28;97460;-65